createdAt,value
2023-02-08T00:01:16.336Z,102361.28
2023-02-08T00:03:44.496Z,102358.06
2023-02-08T00:06:14.256Z,102358.03
2023-02-08T00:08:43.544Z,102356.75
2023-02-08T00:11:11.007Z,102354.81
2023-02-08T00:13:41.656Z,102355.69
2023-02-08T00:16:10.404Z,102356.56
2023-02-08T00:18:40.677Z,102356.22
2023-02-08T00:21:10.574Z,102352.13
2023-02-08T00:23:38.189Z,102358.19
2023-02-08T00:26:08.089Z,102357.03
2023-02-08T00:28:35.766Z,102351.94
2023-02-08T00:31:04.160Z,102352.94
2023-02-08T00:33:31.411Z,102356.28
2023-02-08T00:35:59.995Z,102356.81
2023-02-08T00:38:27.597Z,102354.97
2023-02-08T00:40:54.935Z,102352.91
2023-02-08T00:43:23.806Z,102347.16
2023-02-08T00:45:54.687Z,102352.47
2023-02-08T00:48:22.213Z,102357.03
2023-02-08T00:50:58.595Z,102347.19
2023-02-08T00:53:26.097Z,102347.41
2023-02-08T00:55:53.361Z,102335.31
2023-02-08T00:58:21.997Z,102330.13
2023-02-08T01:00:53.299Z,102335.69
2023-02-08T01:03:21.405Z,102329.16
2023-02-08T01:05:49.124Z,102329.63
2023-02-08T01:08:16.928Z,102325.72
2023-02-08T01:10:44.668Z,102334.31
2023-02-08T01:13:11.638Z,102330.50
2023-02-08T01:15:38.840Z,102336.28
2023-02-08T01:18:08.241Z,102338.25
2023-02-08T01:20:37.100Z,102329.50
2023-02-08T01:23:05.309Z,102326.16
2023-02-08T01:25:32.477Z,102321.72
2023-02-08T01:28:00.118Z,102323.38
2023-02-08T01:30:27.465Z,102310.00
2023-02-08T01:32:54.630Z,102321.34
2023-02-08T01:35:23.456Z,102310.69
2023-02-08T01:37:51.026Z,102310.34
2023-02-08T01:40:18.369Z,102305.28
2023-02-08T01:42:46.143Z,102313.81
2023-02-08T01:45:26.664Z,102310.34
2023-02-08T01:47:59.594Z,102300.88
2023-02-08T01:50:33.408Z,102293.13
2023-02-08T01:53:01.704Z,102294.97
2023-02-08T01:55:33.479Z,102291.84
2023-02-08T01:58:06.512Z,102295.44
2023-02-08T02:00:34.117Z,102289.66
2023-02-08T02:03:02.392Z,102298.06
2023-02-08T02:05:39.472Z,102296.97
2023-02-08T02:08:08.405Z,102296.22
2023-02-08T02:10:38.301Z,102292.66
2023-02-08T02:13:08.457Z,102287.00
2023-02-08T02:15:35.657Z,102291.53
2023-02-08T02:18:06.068Z,102293.16
2023-02-08T02:20:50.960Z,102292.78
2023-02-08T02:23:38.003Z,102289.31
2023-02-08T02:26:42.555Z,102293.25
2023-02-08T02:29:48.905Z,102292.88
2023-02-08T02:32:45.005Z,102291.28
2023-02-08T02:35:20.371Z,102289.94
2023-02-08T02:37:58.131Z,102284.41
2023-02-08T02:40:34.794Z,102286.13
2023-02-08T02:43:11.657Z,102280.94
2023-02-08T02:45:47.119Z,102272.44
2023-02-08T02:48:23.544Z,102271.44
2023-02-08T02:50:58.489Z,102268.63
2023-02-08T02:53:34.518Z,102268.25
2023-02-08T02:56:07.147Z,102261.59
2023-02-08T02:58:36.619Z,102253.56
2023-02-08T03:01:04.316Z,102250.00
2023-02-08T03:03:34.897Z,102260.38
2023-02-08T03:06:08.065Z,102258.41
2023-02-08T03:09:03.025Z,102247.31
2023-02-08T03:11:34.877Z,102251.63
2023-02-08T03:14:29.766Z,102248.53
2023-02-08T03:17:17.696Z,102254.22
2023-02-08T03:19:54.649Z,102249.16
2023-02-08T03:22:29.564Z,102254.34
2023-02-08T03:25:03.541Z,102249.69
2023-02-08T03:27:37.619Z,102241.66
2023-02-08T03:30:13.007Z,102241.16
2023-02-08T03:32:47.489Z,102240.06
2023-02-08T03:35:23.324Z,102233.63
2023-02-08T03:37:58.828Z,102231.91
2023-02-08T03:40:31.478Z,102227.09
2023-02-08T03:43:03.735Z,102225.88
2023-02-08T03:45:36.649Z,102233.78
2023-02-08T03:48:08.148Z,102232.91
2023-02-08T03:50:40.290Z,102219.34
2023-02-08T03:53:09.652Z,102218.75
2023-02-08T03:55:39.767Z,102206.81
2023-02-08T03:58:12.345Z,102195.97
2023-02-08T04:00:42.978Z,102195.97
2023-02-08T04:03:17.647Z,102196.31
2023-02-08T04:05:46.959Z,102189.81
2023-02-08T04:08:14.684Z,102188.69
2023-02-08T04:10:42.578Z,102177.13
2023-02-08T04:13:11.989Z,102165.66
2023-02-08T04:15:39.149Z,102165.31
2023-02-08T04:18:06.792Z,102167.88
2023-02-08T04:20:34.191Z,102154.81
2023-02-08T04:23:03.743Z,102152.72
2023-02-08T04:25:31.298Z,102156.28
2023-02-08T04:27:58.746Z,102153.06
2023-02-08T04:30:26.020Z,102156.38
2023-02-08T04:32:53.329Z,102153.44
2023-02-08T04:35:20.528Z,102158.22
2023-02-08T04:37:47.700Z,102153.19
2023-02-08T04:40:16.410Z,102150.47
2023-02-08T04:42:43.875Z,102152.94
2023-02-08T04:45:11.282Z,102145.06
2023-02-08T04:47:38.768Z,102136.19
2023-02-08T04:50:06.559Z,102140.38
2023-02-08T04:52:33.698Z,102132.47
2023-02-08T04:55:01.345Z,102134.34
2023-02-08T04:57:30.371Z,102128.56
2023-02-08T05:00:00.055Z,102127.09
2023-02-08T05:02:28.164Z,102119.59
2023-02-08T05:04:55.500Z,102100.94
2023-02-08T05:07:22.946Z,102093.84
2023-02-08T05:09:50.497Z,102085.53
2023-02-08T05:12:17.907Z,102088.91
2023-02-08T05:14:46.558Z,102084.47
2023-02-08T05:17:14.097Z,102088.66
2023-02-08T05:19:41.756Z,102084.69
2023-02-08T05:22:09.197Z,102084.56
2023-02-08T05:24:36.770Z,102073.38
2023-02-08T05:27:04.259Z,102072.41
2023-02-08T05:29:31.841Z,102076.09
2023-02-08T05:32:00.705Z,102072.53
2023-02-08T05:34:28.041Z,102054.78
2023-02-08T05:36:55.193Z,102065.75
2023-02-08T05:39:22.444Z,102061.06
2023-02-08T05:41:50.027Z,102063.91
2023-02-08T05:44:17.444Z,102067.34
2023-02-08T05:46:45.085Z,102059.63
2023-02-08T05:49:13.948Z,102064.69
2023-02-08T05:51:40.846Z,102067.13
2023-02-08T05:54:08.449Z,102067.91
2023-02-08T05:56:35.819Z,102057.06
2023-02-08T05:59:04.235Z,102056.81
2023-02-08T06:01:32.320Z,102059.53
2023-02-08T06:04:00.628Z,102060.88
2023-02-08T06:06:29.783Z,102060.41
2023-02-08T06:08:57.056Z,102060.53
2023-02-08T06:11:24.192Z,102076.88
2023-02-08T06:13:51.379Z,102076.38
2023-02-08T06:16:20.051Z,102090.66
2023-02-08T06:18:47.506Z,102092.16
2023-02-08T06:21:14.899Z,102097.31
2023-02-08T06:23:43.594Z,102112.59
2023-02-08T06:26:10.851Z,102115.28
2023-02-08T06:28:38.247Z,102104.69
2023-02-08T06:31:06.321Z,102102.22
2023-02-08T06:33:34.992Z,102107.31
2023-02-08T06:36:02.144Z,102114.06
2023-02-08T06:38:29.514Z,102107.78
2023-02-08T06:40:58.418Z,102114.91
2023-02-08T06:43:26.411Z,102119.72
2023-02-08T06:45:53.680Z,102126.00
2023-02-08T06:48:20.798Z,102134.00
2023-02-08T06:50:48.003Z,102138.44
2023-02-08T06:53:15.250Z,102140.91
2023-02-08T06:55:42.438Z,102145.81
2023-02-08T06:58:15.868Z,102146.94
2023-02-08T07:00:43.326Z,102158.88
2023-02-08T07:03:10.747Z,102142.84
2023-02-08T07:05:39.156Z,102139.78
2023-02-08T07:08:07.377Z,102139.28
2023-02-08T07:10:35.212Z,102142.97
2023-02-08T07:13:02.827Z,102135.47
2023-02-08T07:15:31.945Z,102148.50
2023-02-08T07:17:59.453Z,102144.44
2023-02-08T07:20:26.768Z,102148.97
2023-02-08T07:22:54.314Z,102147.84
2023-02-08T07:25:22.387Z,102146.94
2023-02-08T07:27:50.422Z,102155.78
2023-02-08T07:30:17.247Z,102157.63
2023-02-08T07:32:46.520Z,102168.03
2023-02-08T07:35:13.799Z,102166.53
2023-02-08T07:37:40.968Z,102157.13
2023-02-08T07:40:08.848Z,102154.53
2023-02-08T07:42:36.605Z,102151.25
2023-02-08T07:45:04.504Z,102146.28
2023-02-08T07:47:31.700Z,102150.97
2023-02-08T07:50:00.563Z,102150.22
2023-02-08T07:52:27.840Z,102142.41
2023-02-08T07:54:55.181Z,102136.22
2023-02-08T07:57:22.615Z,102128.00
2023-02-08T07:59:52.026Z,102110.59
2023-02-08T08:02:21.310Z,102117.63
2023-02-08T08:04:48.963Z,102110.41
2023-02-08T08:07:17.902Z,102109.75
2023-02-08T08:09:45.329Z,102104.97
2023-02-08T08:12:12.698Z,102101.88
2023-02-08T08:14:39.917Z,102091.41
2023-02-08T08:17:07.172Z,102093.66
2023-02-08T08:19:34.521Z,102082.56
2023-02-08T08:22:01.781Z,102077.97
2023-02-08T08:24:31.174Z,102071.72
2023-02-08T08:26:58.747Z,102076.50
2023-02-08T08:29:26.226Z,102072.66
2023-02-08T08:31:54.291Z,102071.59
2023-02-08T08:34:21.931Z,102070.91
2023-02-08T08:36:49.121Z,102070.84
2023-02-08T08:39:16.393Z,102069.25
2023-02-08T08:41:45.315Z,102077.22
2023-02-08T08:44:12.458Z,102071.78
2023-02-08T08:46:39.672Z,102074.88
2023-02-08T08:49:07.330Z,102086.16
2023-02-08T08:51:34.933Z,102080.28
2023-02-08T08:54:02.243Z,102078.16
2023-02-08T08:56:30.102Z,102081.19
2023-02-08T08:59:00.741Z,102071.00
2023-02-08T09:01:27.748Z,102067.00
2023-02-08T09:03:55.073Z,102058.44
2023-02-08T09:06:22.374Z,102070.78
2023-02-08T09:08:51.752Z,102069.38
2023-02-08T09:11:19.577Z,102062.94
2023-02-08T09:13:46.699Z,102061.34
2023-02-08T09:16:17.048Z,102067.22
2023-02-08T09:18:44.900Z,102075.19
2023-02-08T09:21:14.617Z,102081.66
2023-02-08T09:23:42.207Z,102083.13
2023-02-08T09:26:11.777Z,102076.72
2023-02-08T09:28:39.657Z,102082.22
2023-02-08T09:31:10.857Z,102085.25
2023-02-08T09:33:39.928Z,102080.94
2023-02-08T09:36:08.040Z,102083.09
2023-02-08T09:38:35.810Z,102081.97
2023-02-08T09:41:15.007Z,102080.59
2023-02-08T09:43:52.827Z,102067.53
2023-02-08T09:46:23.437Z,102071.56
2023-02-08T09:48:55.133Z,102078.34
2023-02-08T09:51:30.727Z,102078.16
2023-02-08T09:54:03.007Z,102081.84
2023-02-08T09:56:37.167Z,102080.44
2023-02-08T09:59:04.651Z,102072.69
2023-02-08T10:01:34.184Z,102080.25
2023-02-08T10:04:09.475Z,102070.84
2023-02-08T10:06:37.046Z,102077.38
2023-02-08T10:09:07.639Z,102075.19
2023-02-08T10:11:50.662Z,102069.91
2023-02-08T10:14:44.901Z,102064.84
2023-02-08T10:17:36.657Z,102071.66
2023-02-08T10:20:17.065Z,102074.25
2023-02-08T10:22:57.101Z,102065.56
2023-02-08T10:25:41.544Z,102064.88
2023-02-08T10:28:26.990Z,102060.06
2023-02-08T10:31:01.909Z,102053.69
2023-02-08T10:33:37.957Z,102044.31
2023-02-08T10:36:14.903Z,102041.81
2023-02-08T10:38:46.761Z,102047.63
2023-02-08T10:41:20.568Z,102048.44
2023-02-08T10:43:54.212Z,102045.50
2023-02-08T10:46:28.454Z,102042.75
2023-02-08T10:49:05.774Z,102039.63
2023-02-08T10:51:35.126Z,102039.13
2023-02-08T10:54:02.434Z,102036.31
2023-02-08T10:56:41.486Z,102030.53
2023-02-08T10:59:17.166Z,102027.84
2023-02-08T11:01:47.032Z,102036.75
2023-02-08T11:04:14.804Z,102019.97
2023-02-08T11:06:46.326Z,102015.22
2023-02-08T11:09:28.668Z,102012.25
2023-02-08T11:11:57.831Z,102009.28
2023-02-08T11:14:44.342Z,101991.72
2023-02-08T11:17:26.188Z,101988.94
2023-02-08T11:19:54.345Z,101993.63
2023-02-08T11:22:26.749Z,101988.09
2023-02-08T11:24:57.704Z,101982.00
2023-02-08T11:27:33.613Z,101993.00
2023-02-08T11:30:22.280Z,101987.38
2023-02-08T11:33:10.582Z,101976.00
2023-02-08T11:35:38.422Z,101973.16
2023-02-08T11:38:18.416Z,101963.66
2023-02-08T11:40:46.450Z,101961.00
2023-02-08T11:43:23.056Z,101951.88
2023-02-08T11:45:51.019Z,101951.31
2023-02-08T11:48:25.855Z,101950.47
2023-02-08T11:50:57.134Z,101952.78
2023-02-08T11:53:30.069Z,101951.88
2023-02-08T11:56:06.302Z,101937.41
2023-02-08T11:58:34.512Z,101923.41
2023-02-08T12:01:04.902Z,101919.66
2023-02-08T12:03:37.015Z,101922.75
2023-02-08T12:06:30.575Z,101912.97
2023-02-08T12:09:12.883Z,101904.13
2023-02-08T12:11:43.492Z,101900.84
2023-02-08T12:14:27.077Z,101891.59
2023-02-08T12:17:13.004Z,101900.16
2023-02-08T12:20:03.584Z,101895.69
2023-02-08T12:22:31.397Z,101899.97
2023-02-08T12:25:19.799Z,101884.25
2023-02-08T12:27:53.920Z,101887.13
2023-02-08T12:30:30.241Z,101880.44
2023-02-08T12:33:31.345Z,101886.63
2023-02-08T12:36:08.915Z,101881.03
2023-02-08T12:38:57.645Z,101869.44
2023-02-08T12:41:36.043Z,101864.31
2023-02-08T12:44:15.137Z,101854.47
2023-02-08T12:46:59.002Z,101863.88
2023-02-08T12:49:48.447Z,101845.03
2023-02-08T12:52:26.097Z,101848.41
2023-02-08T12:54:57.387Z,101853.22
2023-02-08T12:57:31.680Z,101851.66
2023-02-08T13:00:03.586Z,101840.56
2023-02-08T13:02:36.135Z,101831.13
2023-02-08T13:05:07.734Z,101833.59
2023-02-08T13:07:41.829Z,101830.31
2023-02-08T13:10:19.597Z,101832.91
2023-02-08T13:12:53.444Z,101821.72
2023-02-08T13:15:30.498Z,101831.16
2023-02-08T13:18:00.433Z,101815.28
2023-02-08T13:20:38.441Z,101814.03
2023-02-08T13:23:16.129Z,101800.91
2023-02-08T13:25:44.892Z,101804.09
2023-02-08T13:28:20.470Z,101799.75
2023-02-08T13:30:56.009Z,101800.81
2023-02-08T13:33:34.115Z,101790.78
2023-02-08T13:36:02.227Z,101784.88
2023-02-08T13:38:33.260Z,101778.09
2023-02-08T13:41:07.316Z,101757.25
2023-02-08T13:43:42.700Z,101764.00
2023-02-08T13:46:11.789Z,101757.22
2023-02-08T13:48:45.381Z,101755.41
2023-02-08T13:51:57.459Z,101755.66
2023-02-08T13:54:24.900Z,101747.69
2023-02-08T13:56:53.047Z,101750.47
2023-02-08T13:59:42.747Z,101742.88
2023-02-08T14:02:22.046Z,101735.72
2023-02-08T14:04:51.323Z,101729.66
2023-02-08T14:07:26.202Z,101726.19
2023-02-08T14:10:18.556Z,101723.81
2023-02-08T14:12:54.973Z,101717.19
2023-02-08T14:15:31.365Z,101723.75
2023-02-08T14:18:01.110Z,101714.19
2023-02-08T14:20:35.389Z,101719.19
2023-02-08T14:23:04.810Z,101716.44
2023-02-08T14:25:43.093Z,101714.91
2023-02-08T14:28:26.122Z,101712.91
2023-02-08T14:30:59.145Z,101715.50
2023-02-08T14:33:29.458Z,101714.91
2023-02-08T14:35:58.975Z,101707.94
2023-02-08T14:38:52.497Z,101709.44
2023-02-08T14:41:49.388Z,101693.34
2023-02-08T14:44:53.561Z,101696.38
2023-02-08T14:48:03.301Z,101689.09
2023-02-08T14:50:50.393Z,101680.31
2023-02-08T14:53:27.113Z,101672.25
2023-02-08T14:55:59.588Z,101668.50
2023-02-08T14:58:30.741Z,101660.34
2023-02-08T15:01:02.281Z,101669.50
2023-02-08T15:03:33.504Z,101660.66
2023-02-08T15:06:33.252Z,101656.13
2023-02-08T15:09:02.567Z,101667.34
2023-02-08T15:11:32.542Z,101669.88
2023-02-08T15:14:03.520Z,101657.44
2023-02-08T15:16:35.294Z,101665.84
2023-02-08T15:19:05.527Z,101667.88
2023-02-08T15:21:32.858Z,101662.75
2023-02-08T15:24:05.908Z,101652.47
2023-02-08T15:26:33.434Z,101654.06
2023-02-08T15:29:00.915Z,101656.41
2023-02-08T15:31:32.971Z,101654.38
2023-02-08T15:34:02.747Z,101657.97
2023-02-08T15:36:32.154Z,101657.63
2023-02-08T15:39:09.895Z,101657.13
2023-02-08T15:41:37.080Z,101648.25
2023-02-08T15:44:17.517Z,101650.13
2023-02-08T15:46:46.439Z,101649.25
2023-02-08T15:49:16.351Z,101645.34
2023-02-08T15:51:45.778Z,101646.88
2023-02-08T15:54:18.470Z,101641.41
2023-02-08T15:56:51.375Z,101638.81
2023-02-08T15:59:24.388Z,101627.44
2023-02-08T16:01:53.512Z,101627.28
2023-02-08T16:04:21.229Z,101615.06
2023-02-08T16:06:52.000Z,101605.53
2023-02-08T16:09:24.963Z,101605.59
2023-02-08T16:11:53.356Z,101608.91
2023-02-08T16:14:27.034Z,101599.34
2023-02-08T16:16:58.975Z,101600.56
2023-02-08T16:19:28.473Z,101596.28
2023-02-08T16:21:57.525Z,101589.66
2023-02-08T16:24:28.086Z,101589.59
2023-02-08T16:27:01.098Z,101576.38
2023-02-08T16:29:30.964Z,101571.09
2023-02-08T16:32:02.140Z,101575.38
2023-02-08T16:34:31.695Z,101582.81
2023-02-08T16:36:59.718Z,101578.03
2023-02-08T16:39:39.800Z,101572.63
2023-02-08T16:42:20.856Z,101576.66
2023-02-08T16:45:11.381Z,101581.25
2023-02-08T16:47:41.353Z,101579.69
2023-02-08T16:50:11.303Z,101585.81
2023-02-08T16:52:39.264Z,101578.25
2023-02-08T16:55:16.941Z,101586.50
2023-02-08T16:57:46.289Z,101591.16
2023-02-08T17:00:19.374Z,101594.19
2023-02-08T17:02:46.834Z,101586.06
2023-02-08T17:05:14.972Z,101586.63
2023-02-08T17:07:43.028Z,101575.75
2023-02-08T17:10:18.842Z,101576.97
2023-02-08T17:12:46.513Z,101578.34
2023-02-08T17:15:13.921Z,101578.34
2023-02-08T17:17:41.494Z,101567.97
2023-02-08T17:20:18.188Z,101569.06
2023-02-08T17:22:45.753Z,101571.78
2023-02-08T17:25:14.975Z,101568.34
2023-02-08T17:27:42.288Z,101567.97
2023-02-08T17:30:18.533Z,101565.34
2023-02-08T17:32:45.783Z,101562.78
2023-02-08T17:35:15.272Z,101564.31
2023-02-08T17:37:42.507Z,101551.41
2023-02-08T17:40:10.499Z,101556.84
2023-02-08T17:42:39.378Z,101554.78
2023-02-08T17:45:08.275Z,101555.09
2023-02-08T17:47:36.380Z,101556.69
2023-02-08T17:50:03.943Z,101548.91
2023-02-08T17:52:31.324Z,101547.78
2023-02-08T17:54:58.735Z,101550.03
2023-02-08T17:57:26.420Z,101553.41
2023-02-08T17:59:55.688Z,101543.19
2023-02-08T18:02:22.978Z,101537.91
2023-02-08T18:04:50.324Z,101541.53
2023-02-08T18:07:17.514Z,101552.50
2023-02-08T18:09:45.110Z,101547.50
2023-02-08T18:12:12.452Z,101555.63
2023-02-08T18:14:39.608Z,101564.16
2023-02-08T18:17:08.424Z,101554.63
2023-02-08T18:19:35.843Z,101557.25
2023-02-08T18:22:02.982Z,101567.53
2023-02-08T18:24:31.275Z,101556.66
2023-02-08T18:26:59.855Z,101551.38
2023-02-08T18:29:27.516Z,101548.25
2023-02-08T18:31:55.298Z,101547.53
2023-02-08T18:34:24.292Z,101538.78
2023-02-08T18:36:51.401Z,101533.38
2023-02-08T18:39:18.670Z,101543.91
2023-02-08T18:41:45.887Z,101546.06
2023-02-08T18:44:13.401Z,101551.66
2023-02-08T18:46:40.942Z,101554.84
2023-02-08T18:49:08.120Z,101551.75
2023-02-08T18:51:37.498Z,101573.75
2023-02-08T18:54:05.112Z,101571.00
2023-02-08T18:56:32.313Z,101576.31
2023-02-08T18:58:59.633Z,101571.88
2023-02-08T19:01:27.653Z,101558.03
2023-02-08T19:03:54.937Z,101563.41
2023-02-08T19:06:24.784Z,101578.88
2023-02-08T19:08:55.785Z,101565.66
2023-02-08T19:11:24.991Z,101574.91
2023-02-08T19:13:53.788Z,101581.28
2023-02-08T19:16:22.204Z,101589.06
2023-02-08T19:18:49.699Z,101591.38
2023-02-08T19:21:18.283Z,101573.19
2023-02-08T19:23:47.089Z,101561.00
2023-02-08T19:26:18.572Z,101565.88
2023-02-08T19:28:46.415Z,101561.53
2023-02-08T19:31:16.340Z,101542.94
2023-02-08T19:33:45.824Z,101543.91
2023-02-08T19:36:15.635Z,101556.72
2023-02-08T19:38:43.190Z,101552.66
2023-02-08T19:41:16.682Z,101556.38
2023-02-08T19:43:45.670Z,101550.88
2023-02-08T19:46:15.227Z,101543.41
2023-02-08T19:48:42.818Z,101556.25
2023-02-08T19:51:10.652Z,101574.91
2023-02-08T19:53:38.229Z,101576.22
2023-02-08T19:56:07.517Z,101572.13
2023-02-08T19:58:36.859Z,101584.06
2023-02-08T20:01:06.678Z,101566.13
2023-02-08T20:03:33.989Z,101568.53
2023-02-08T20:06:02.258Z,101569.88
2023-02-08T20:08:30.443Z,101555.47
2023-02-08T20:10:57.571Z,101563.97
2023-02-08T20:13:24.992Z,101549.72
2023-02-08T20:15:58.260Z,101525.94
2023-02-08T20:18:25.878Z,101537.13
2023-02-08T20:21:00.787Z,101531.94
2023-02-08T20:23:28.645Z,101533.78
2023-02-08T20:26:08.594Z,101552.91
2023-02-08T20:28:38.250Z,101541.81
2023-02-08T20:31:11.953Z,101525.47
2023-02-08T20:33:40.075Z,101507.28
2023-02-08T20:36:10.049Z,101511.16
2023-02-08T20:38:38.242Z,101507.28
2023-02-08T20:41:07.898Z,101503.31
2023-02-08T20:43:35.689Z,101474.25
2023-02-08T20:46:06.569Z,101479.00
2023-02-08T20:48:36.069Z,101481.66
2023-02-08T20:51:08.176Z,101502.47
2023-02-08T20:53:37.078Z,101489.63
2023-02-08T20:56:09.272Z,101504.41
2023-02-08T20:58:36.713Z,101503.84
2023-02-08T21:01:07.926Z,101488.09
2023-02-08T21:03:37.007Z,101505.00
2023-02-08T21:06:12.875Z,101501.38
2023-02-08T21:08:40.601Z,101480.06
2023-02-08T21:11:07.976Z,101495.06
2023-02-08T21:13:35.359Z,101503.66
2023-02-08T21:16:05.738Z,101495.25
2023-02-08T21:18:32.862Z,101488.44
2023-02-08T21:21:02.145Z,101491.00
2023-02-08T21:23:29.508Z,101489.69
2023-02-08T21:25:58.557Z,101485.09
2023-02-08T21:28:26.305Z,101494.91
2023-02-08T21:30:58.060Z,101478.41
2023-02-08T21:33:25.821Z,101468.16
2023-02-08T21:35:53.718Z,101454.25
2023-02-08T21:38:22.581Z,101450.81
2023-02-08T21:40:49.802Z,101440.63
2023-02-08T21:43:17.211Z,101441.41
2023-02-08T21:45:44.480Z,101442.97
2023-02-08T21:48:11.673Z,101435.19
2023-02-08T21:50:39.027Z,101439.72
2023-02-08T21:53:06.258Z,101446.84
2023-02-08T21:55:35.074Z,101460.38
2023-02-08T21:58:02.541Z,101468.59
2023-02-08T22:00:29.935Z,101472.97
2023-02-08T22:02:57.256Z,101475.09
2023-02-08T22:05:24.656Z,101477.91
2023-02-08T22:07:53.974Z,101488.56
2023-02-08T22:10:22.622Z,101480.47
2023-02-08T22:12:51.741Z,101481.66
2023-02-08T22:15:20.614Z,101471.78
2023-02-08T22:17:48.117Z,101476.41
2023-02-08T22:20:16.041Z,101470.56
2023-02-08T22:22:43.389Z,101462.09
2023-02-08T22:25:11.194Z,101458.44
2023-02-08T22:27:39.488Z,101450.34
2023-02-08T22:30:11.291Z,101449.53
2023-02-08T22:32:40.511Z,101446.00
2023-02-08T22:35:08.340Z,101450.44
2023-02-08T22:37:36.508Z,101448.34
2023-02-08T22:40:06.221Z,101450.75
2023-02-08T22:42:33.930Z,101439.41
2023-02-08T22:45:01.123Z,101447.56
2023-02-08T22:47:30.575Z,101441.38
2023-02-08T22:49:58.217Z,101445.09
2023-02-08T22:52:25.476Z,101440.41
2023-02-08T22:54:53.378Z,101436.22
2023-02-08T22:57:21.018Z,101431.56
2023-02-08T22:59:48.279Z,101432.41
2023-02-08T23:02:15.910Z,101431.44
2023-02-08T23:04:44.823Z,101435.19
2023-02-08T23:07:12.213Z,101439.06
2023-02-08T23:09:40.132Z,101436.66
2023-02-08T23:12:07.965Z,101443.31
2023-02-08T23:14:35.378Z,101440.75
2023-02-08T23:17:02.667Z,101441.59
2023-02-08T23:19:29.815Z,101432.78
2023-02-08T23:22:00.522Z,101419.84
2023-02-08T23:24:28.748Z,101421.22
2023-02-08T23:26:56.150Z,101416.91
2023-02-08T23:29:23.453Z,101427.66
2023-02-08T23:31:51.105Z,101430.75
2023-02-08T23:34:18.663Z,101439.94
2023-02-08T23:36:46.869Z,101457.84
2023-02-08T23:39:16.202Z,101457.84
2023-02-08T23:41:43.439Z,101452.06
2023-02-08T23:44:10.624Z,101441.00
2023-02-08T23:46:38.542Z,101437.06
2023-02-08T23:49:06.248Z,101443.41
2023-02-08T23:51:34.269Z,101451.06
2023-02-08T23:54:01.569Z,101443.41
2023-02-08T23:56:31.517Z,101436.22
2023-02-08T23:58:59.719Z,101434.19
